sensor_id;sensor_type;location;lat;lon;timestamp;P1;durP1;ratioP1;P2;durP2;ratioP2
60582;SDS011;46415;47.536;19.066;2023-04-24T00:00:16;12.35;;;7.82;;
60582;SDS011;46415;47.536;19.066;2023-04-24T00:03:20;10.25;;;8.07;;
60582;SDS011;46415;47.536;19.066;2023-04-24T00:06:23;10.23;;;8.18;;
60582;SDS011;46415;47.536;19.066;2023-04-24T00:09:36;9.15;;;7.57;;
60582;SDS011;46415;47.536;19.066;2023-04-24T00:12:39;11.38;;;8.10;;
60582;SDS011;46415;47.536;19.066;2023-04-24T00:15:42;9.13;;;7.80;;
60582;SDS011;46415;47.536;19.066;2023-04-24T00:18:44;10.68;;;7.80;;
60582;SDS011;46415;47.536;19.066;2023-04-24T00:21:48;9.27;;;7.35;;
60582;SDS011;46415;47.536;19.066;2023-04-24T00:24:54;11.05;;;8.35;;
60582;SDS011;46415;47.536;19.066;2023-04-24T00:27:57;10.38;;;7.90;;
60582;SDS011;46415;47.536;19.066;2023-04-24T00:31:00;9.68;;;7.68;;
60582;SDS011;46415;47.536;19.066;2023-04-24T00:34:03;11.27;;;7.97;;
60582;SDS011;46415;47.536;19.066;2023-04-24T00:37:06;9.40;;;7.53;;
60582;SDS011;46415;47.536;19.066;2023-04-24T00:40:10;9.02;;;7.87;;
60582;SDS011;46415;47.536;19.066;2023-04-24T00:43:13;11.95;;;8.00;;
60582;SDS011;46415;47.536;19.066;2023-04-24T00:46:16;8.32;;;7.07;;
60582;SDS011;46415;47.536;19.066;2023-04-24T00:49:20;9.85;;;7.95;;
60582;SDS011;46415;47.536;19.066;2023-04-24T00:52:24;12.80;;;8.18;;
60582;SDS011;46415;47.536;19.066;2023-04-24T00:55:27;9.82;;;7.60;;
60582;SDS011;46415;47.536;19.066;2023-04-24T00:58:31;8.85;;;7.85;;
60582;SDS011;46415;47.536;19.066;2023-04-24T01:01:34;9.52;;;7.55;;
60582;SDS011;46415;47.536;19.066;2023-04-24T01:04:38;9.93;;;8.40;;
60582;SDS011;46415;47.536;19.066;2023-04-24T01:07:43;9.63;;;8.32;;
60582;SDS011;46415;47.536;19.066;2023-04-24T01:10:48;8.63;;;7.82;;
60582;SDS011;46415;47.536;19.066;2023-04-24T01:13:54;9.73;;;8.18;;
60582;SDS011;46415;47.536;19.066;2023-04-24T01:16:57;8.45;;;7.57;;
60582;SDS011;46415;47.536;19.066;2023-04-24T01:20:02;11.30;;;8.05;;
60582;SDS011;46415;47.536;19.066;2023-04-24T01:23:08;8.07;;;7.28;;
60582;SDS011;46415;47.536;19.066;2023-04-24T01:26:12;8.02;;;6.62;;
60582;SDS011;46415;47.536;19.066;2023-04-24T01:29:16;8.52;;;7.30;;
60582;SDS011;46415;47.536;19.066;2023-04-24T01:32:19;7.85;;;6.72;;
60582;SDS011;46415;47.536;19.066;2023-04-24T01:35:22;7.07;;;6.30;;
60582;SDS011;46415;47.536;19.066;2023-04-24T01:38:25;8.18;;;6.60;;
60582;SDS011;46415;47.536;19.066;2023-04-24T01:41:28;9.30;;;6.25;;
60582;SDS011;46415;47.536;19.066;2023-04-24T01:44:33;8.32;;;6.35;;
60582;SDS011;46415;47.536;19.066;2023-04-24T01:47:38;9.55;;;5.80;;
60582;SDS011;46415;47.536;19.066;2023-04-24T01:50:41;8.45;;;6.07;;
60582;SDS011;46415;47.536;19.066;2023-04-24T01:53:46;12.60;;;6.57;;
60582;SDS011;46415;47.536;19.066;2023-04-24T01:56:49;8.45;;;7.05;;
60582;SDS011;46415;47.536;19.066;2023-04-24T01:59:52;9.60;;;8.15;;
60582;SDS011;46415;47.536;19.066;2023-04-24T02:02:55;11.73;;;8.73;;
60582;SDS011;46415;47.536;19.066;2023-04-24T02:06:00;10.25;;;9.15;;
60582;SDS011;46415;47.536;19.066;2023-04-24T02:09:03;12.27;;;9.40;;
60582;SDS011;46415;47.536;19.066;2023-04-24T02:12:06;11.30;;;9.52;;
60582;SDS011;46415;47.536;19.066;2023-04-24T02:15:10;12.18;;;9.88;;
60582;SDS011;46415;47.536;19.066;2023-04-24T02:18:13;7.60;;;6.80;;
60582;SDS011;46415;47.536;19.066;2023-04-24T02:21:16;12.88;;;9.93;;
60582;SDS011;46415;47.536;19.066;2023-04-24T02:24:18;13.18;;;8.35;;
60582;SDS011;46415;47.536;19.066;2023-04-24T02:27:21;12.95;;;11.12;;
60582;SDS011;46415;47.536;19.066;2023-04-24T02:30:24;12.35;;;11.05;;
60582;SDS011;46415;47.536;19.066;2023-04-24T02:33:27;10.63;;;9.32;;
60582;SDS011;46415;47.536;19.066;2023-04-24T02:36:30;14.00;;;9.93;;
60582;SDS011;46415;47.536;19.066;2023-04-24T02:39:34;11.18;;;9.10;;
60582;SDS011;46415;47.536;19.066;2023-04-24T02:42:36;13.20;;;11.50;;
60582;SDS011;46415;47.536;19.066;2023-04-24T02:45:39;10.48;;;8.82;;
60582;SDS011;46415;47.536;19.066;2023-04-24T02:48:42;11.77;;;10.52;;
60582;SDS011;46415;47.536;19.066;2023-04-24T02:51:45;14.55;;;11.85;;
60582;SDS011;46415;47.536;19.066;2023-04-24T02:54:48;12.45;;;10.00;;
60582;SDS011;46415;47.536;19.066;2023-04-24T02:57:51;13.80;;;12.27;;
60582;SDS011;46415;47.536;19.066;2023-04-24T03:00:54;20.25;;;9.27;;
60582;SDS011;46415;47.536;19.066;2023-04-24T03:03:58;14.00;;;12.52;;
60582;SDS011;46415;47.536;19.066;2023-04-24T03:07:01;16.12;;;12.70;;
60582;SDS011;46415;47.536;19.066;2023-04-24T03:10:04;13.10;;;11.10;;
60582;SDS011;46415;47.536;19.066;2023-04-24T03:13:08;12.40;;;10.93;;
60582;SDS011;46415;47.536;19.066;2023-04-24T03:16:11;12.00;;;10.27;;
60582;SDS011;46415;47.536;19.066;2023-04-24T03:19:14;11.18;;;10.07;;
60582;SDS011;46415;47.536;19.066;2023-04-24T03:22:18;9.93;;;7.70;;
60582;SDS011;46415;47.536;19.066;2023-04-24T03:25:20;11.88;;;10.68;;
60582;SDS011;46415;47.536;19.066;2023-04-24T03:28:23;12.45;;;9.90;;
60582;SDS011;46415;47.536;19.066;2023-04-24T03:31:27;11.18;;;9.65;;
60582;SDS011;46415;47.536;19.066;2023-04-24T03:34:30;11.70;;;10.45;;
60582;SDS011;46415;47.536;19.066;2023-04-24T03:37:33;11.20;;;9.75;;
60582;SDS011;46415;47.536;19.066;2023-04-24T03:40:38;13.93;;;9.88;;
60582;SDS011;46415;47.536;19.066;2023-04-24T03:43:41;11.38;;;10.00;;
60582;SDS011;46415;47.536;19.066;2023-04-24T03:46:44;11.15;;;9.73;;
60582;SDS011;46415;47.536;19.066;2023-04-24T03:49:47;14.35;;;11.57;;
60582;SDS011;46415;47.536;19.066;2023-04-24T03:52:50;12.35;;;10.32;;
60582;SDS011;46415;47.536;19.066;2023-04-24T03:55:55;12.48;;;11.15;;
60582;SDS011;46415;47.536;19.066;2023-04-24T03:58:58;13.48;;;10.75;;
60582;SDS011;46415;47.536;19.066;2023-04-24T04:02:01;10.88;;;7.75;;
60582;SDS011;46415;47.536;19.066;2023-04-24T04:05:04;12.30;;;11.00;;
60582;SDS011;46415;47.536;19.066;2023-04-24T04:08:07;10.70;;;9.60;;
60582;SDS011;46415;47.536;19.066;2023-04-24T04:11:10;11.85;;;10.65;;
60582;SDS011;46415;47.536;19.066;2023-04-24T04:14:13;13.18;;;11.27;;
60582;SDS011;46415;47.536;19.066;2023-04-24T04:17:17;13.50;;;11.27;;
60582;SDS011;46415;47.536;19.066;2023-04-24T04:20:20;14.00;;;11.98;;
60582;SDS011;46415;47.536;19.066;2023-04-24T04:23:23;16.77;;;10.50;;
60582;SDS011;46415;47.536;19.066;2023-04-24T04:26:26;11.48;;;9.93;;
60582;SDS011;46415;47.536;19.066;2023-04-24T04:29:31;10.32;;;9.23;;
60582;SDS011;46415;47.536;19.066;2023-04-24T04:32:34;11.30;;;9.68;;
60582;SDS011;46415;47.536;19.066;2023-04-24T04:35:38;12.32;;;10.27;;
60582;SDS011;46415;47.536;19.066;2023-04-24T04:38:41;11.73;;;10.25;;
60582;SDS011;46415;47.536;19.066;2023-04-24T04:41:46;10.95;;;9.02;;
60582;SDS011;46415;47.536;19.066;2023-04-24T04:44:51;10.48;;;9.40;;
60582;SDS011;46415;47.536;19.066;2023-04-24T04:47:55;10.77;;;8.95;;
60582;SDS011;46415;47.536;19.066;2023-04-24T04:50:59;10.80;;;9.70;;
60582;SDS011;46415;47.536;19.066;2023-04-24T04:54:03;10.90;;;9.13;;
60582;SDS011;46415;47.536;19.066;2023-04-24T04:57:06;11.93;;;9.48;;
60582;SDS011;46415;47.536;19.066;2023-04-24T05:00:11;13.52;;;10.40;;
60582;SDS011;46415;47.536;19.066;2023-04-24T05:03:17;11.90;;;9.57;;
60582;SDS011;46415;47.536;19.066;2023-04-24T05:06:23;13.65;;;9.88;;
60582;SDS011;46415;47.536;19.066;2023-04-24T05:09:26;10.32;;;9.05;;
60582;SDS011;46415;47.536;19.066;2023-04-24T05:12:32;12.05;;;9.75;;
60582;SDS011;46415;47.536;19.066;2023-04-24T05:15:36;11.35;;;9.82;;
60582;SDS011;46415;47.536;19.066;2023-04-24T05:18:39;11.57;;;10.38;;
60582;SDS011;46415;47.536;19.066;2023-04-24T05:21:43;10.90;;;9.75;;
60582;SDS011;46415;47.536;19.066;2023-04-24T05:24:46;13.80;;;10.05;;
60582;SDS011;46415;47.536;19.066;2023-04-24T05:27:51;13.52;;;10.23;;
60582;SDS011;46415;47.536;19.066;2023-04-24T05:30:54;11.43;;;10.13;;
60582;SDS011;46415;47.536;19.066;2023-04-24T05:34:01;12.37;;;10.10;;
60582;SDS011;46415;47.536;19.066;2023-04-24T05:37:04;12.35;;;10.07;;
60582;SDS011;46415;47.536;19.066;2023-04-24T05:40:10;12.65;;;10.50;;
60582;SDS011;46415;47.536;19.066;2023-04-24T05:43:14;13.43;;;10.60;;
60582;SDS011;46415;47.536;19.066;2023-04-24T05:46:17;12.30;;;9.90;;
60582;SDS011;46415;47.536;19.066;2023-04-24T05:49:20;13.82;;;11.15;;
60582;SDS011;46415;47.536;19.066;2023-04-24T05:52:22;14.57;;;9.45;;
60582;SDS011;46415;47.536;19.066;2023-04-24T05:55:25;12.20;;;10.30;;
60582;SDS011;46415;47.536;19.066;2023-04-24T05:58:28;9.48;;;8.48;;
60582;SDS011;46415;47.536;19.066;2023-04-24T06:01:31;10.57;;;8.48;;
60582;SDS011;46415;47.536;19.066;2023-04-24T06:04:37;9.68;;;8.52;;
60582;SDS011;46415;47.536;19.066;2023-04-24T06:07:40;12.98;;;8.40;;
60582;SDS011;46415;47.536;19.066;2023-04-24T06:10:45;10.68;;;8.57;;
60582;SDS011;46415;47.536;19.066;2023-04-24T06:13:47;10.00;;;8.60;;
60582;SDS011;46415;47.536;19.066;2023-04-24T06:16:55;10.68;;;8.95;;
60582;SDS011;46415;47.536;19.066;2023-04-24T06:20:00;8.68;;;7.78;;
60582;SDS011;46415;47.536;19.066;2023-04-24T06:23:03;9.75;;;8.77;;
60582;SDS011;46415;47.536;19.066;2023-04-24T06:26:07;10.35;;;8.35;;
60582;SDS011;46415;47.536;19.066;2023-04-24T06:29:11;10.55;;;8.75;;
60582;SDS011;46415;47.536;19.066;2023-04-24T06:32:13;9.32;;;8.25;;
60582;SDS011;46415;47.536;19.066;2023-04-24T06:35:16;9.90;;;8.13;;
60582;SDS011;46415;47.536;19.066;2023-04-24T06:38:19;13.18;;;7.97;;
60582;SDS011;46415;47.536;19.066;2023-04-24T06:41:22;9.63;;;8.15;;
60582;SDS011;46415;47.536;19.066;2023-04-24T06:44:25;8.18;;;7.37;;
60582;SDS011;46415;47.536;19.066;2023-04-24T06:47:28;8.35;;;7.55;;
60582;SDS011;46415;47.536;19.066;2023-04-24T06:50:31;8.32;;;7.03;;
60582;SDS011;46415;47.536;19.066;2023-04-24T06:53:33;9.02;;;8.13;;
60582;SDS011;46415;47.536;19.066;2023-04-24T06:56:39;8.48;;;7.57;;
60582;SDS011;46415;47.536;19.066;2023-04-24T06:59:42;8.15;;;7.35;;
60582;SDS011;46415;47.536;19.066;2023-04-24T07:02:45;9.07;;;7.87;;
60582;SDS011;46415;47.536;19.066;2023-04-24T07:05:48;8.10;;;7.30;;
60582;SDS011;46415;47.536;19.066;2023-04-24T07:08:51;9.95;;;7.70;;
60582;SDS011;46415;47.536;19.066;2023-04-24T07:11:54;9.55;;;7.47;;
60582;SDS011;46415;47.536;19.066;2023-04-24T07:14:59;9.73;;;7.50;;
60582;SDS011;46415;47.536;19.066;2023-04-24T07:18:03;9.40;;;7.82;;
60582;SDS011;46415;47.536;19.066;2023-04-24T07:21:07;8.07;;;7.15;;
60582;SDS011;46415;47.536;19.066;2023-04-24T07:24:10;9.30;;;7.35;;
60582;SDS011;46415;47.536;19.066;2023-04-24T07:27:13;11.73;;;7.72;;
60582;SDS011;46415;47.536;19.066;2023-04-24T07:30:18;8.35;;;7.55;;
60582;SDS011;46415;47.536;19.066;2023-04-24T07:33:20;11.65;;;7.95;;
60582;SDS011;46415;47.536;19.066;2023-04-24T07:36:24;8.77;;;7.87;;
60582;SDS011;46415;47.536;19.066;2023-04-24T07:39:28;8.73;;;7.85;;
60582;SDS011;46415;47.536;19.066;2023-04-24T07:42:31;9.40;;;8.02;;
60582;SDS011;46415;47.536;19.066;2023-04-24T07:45:36;8.32;;;7.35;;
60582;SDS011;46415;47.536;19.066;2023-04-24T07:48:40;9.60;;;7.82;;
60582;SDS011;46415;47.536;19.066;2023-04-24T07:51:42;9.43;;;7.62;;
60582;SDS011;46415;47.536;19.066;2023-04-24T07:54:45;11.38;;;8.02;;
60582;SDS011;46415;47.536;19.066;2023-04-24T07:57:48;8.65;;;7.65;;
60582;SDS011;46415;47.536;19.066;2023-04-24T08:00:51;8.93;;;7.68;;
60582;SDS011;46415;47.536;19.066;2023-04-24T08:03:54;8.57;;;7.75;;
60582;SDS011;46415;47.536;19.066;2023-04-24T08:06:58;9.07;;;7.22;;
60582;SDS011;46415;47.536;19.066;2023-04-24T08:10:01;9.40;;;7.57;;
60582;SDS011;46415;47.536;19.066;2023-04-24T08:13:04;10.10;;;7.65;;
60582;SDS011;46415;47.536;19.066;2023-04-24T08:16:07;9.02;;;7.25;;
60582;SDS011;46415;47.536;19.066;2023-04-24T08:19:11;7.80;;;6.90;;
60582;SDS011;46415;47.536;19.066;2023-04-24T08:22:14;9.63;;;8.13;;
60582;SDS011;46415;47.536;19.066;2023-04-24T08:25:17;9.43;;;8.43;;
60582;SDS011;46415;47.536;19.066;2023-04-24T08:28:21;9.30;;;7.60;;
60582;SDS011;46415;47.536;19.066;2023-04-24T08:31:24;9.15;;;8.15;;
60582;SDS011;46415;47.536;19.066;2023-04-24T08:34:28;9.25;;;8.10;;
60582;SDS011;46415;47.536;19.066;2023-04-24T08:37:31;9.05;;;8.13;;
60582;SDS011;46415;47.536;19.066;2023-04-24T08:40:36;8.93;;;8.02;;
60582;SDS011;46415;47.536;19.066;2023-04-24T08:43:39;9.13;;;8.05;;
60582;SDS011;46415;47.536;19.066;2023-04-24T08:46:43;8.13;;;7.05;;
60582;SDS011;46415;47.536;19.066;2023-04-24T08:49:50;11.85;;;7.97;;
60582;SDS011;46415;47.536;19.066;2023-04-24T08:52:54;8.32;;;7.53;;
60582;SDS011;46415;47.536;19.066;2023-04-24T08:55:57;10.73;;;8.00;;
60582;SDS011;46415;47.536;19.066;2023-04-24T08:59:00;8.70;;;7.57;;
60582;SDS011;46415;47.536;19.066;2023-04-24T09:02:04;8.65;;;7.78;;
60582;SDS011;46415;47.536;19.066;2023-04-24T09:05:07;8.60;;;7.80;;
60582;SDS011;46415;47.536;19.066;2023-04-24T09:08:11;9.88;;;8.10;;
60582;SDS011;46415;47.536;19.066;2023-04-24T09:11:16;9.38;;;8.30;;
60582;SDS011;46415;47.536;19.066;2023-04-24T09:14:19;8.38;;;7.57;;
60582;SDS011;46415;47.536;19.066;2023-04-24T09:17:23;9.13;;;7.75;;
60582;SDS011;46415;47.536;19.066;2023-04-24T09:20:30;10.68;;;7.93;;
60582;SDS011;46415;47.536;19.066;2023-04-24T09:23:34;10.40;;;6.78;;
60582;SDS011;46415;47.536;19.066;2023-04-24T09:26:37;9.15;;;6.50;;
60582;SDS011;46415;47.536;19.066;2023-04-24T09:29:52;8.90;;;6.35;;
60582;SDS011;46415;47.536;19.066;2023-04-24T09:33:11;8.45;;;6.28;;
60582;SDS011;46415;47.536;19.066;2023-04-24T09:36:18;6.80;;;5.87;;
60582;SDS011;46415;47.536;19.066;2023-04-24T09:39:21;7.72;;;6.30;;
60582;SDS011;46415;47.536;19.066;2023-04-24T09:42:24;8.07;;;5.75;;
60582;SDS011;46415;47.536;19.066;2023-04-24T09:45:40;6.57;;;5.87;;
60582;SDS011;46415;47.536;19.066;2023-04-24T09:48:43;6.85;;;5.45;;
60582;SDS011;46415;47.536;19.066;2023-04-24T09:51:46;6.50;;;5.55;;
60582;SDS011;46415;47.536;19.066;2023-04-24T09:54:53;6.47;;;5.87;;
60582;SDS011;46415;47.536;19.066;2023-04-24T09:57:57;6.40;;;5.10;;
60582;SDS011;46415;47.536;19.066;2023-04-24T10:01:07;5.40;;;4.90;;
60582;SDS011;46415;47.536;19.066;2023-04-24T10:04:17;6.47;;;5.22;;
60582;SDS011;46415;47.536;19.066;2023-04-24T10:07:21;5.68;;;5.07;;
60582;SDS011;46415;47.536;19.066;2023-04-24T10:10:25;6.03;;;5.05;;
60582;SDS011;46415;47.536;19.066;2023-04-24T10:13:28;6.75;;;4.75;;
60582;SDS011;46415;47.536;19.066;2023-04-24T10:16:31;5.18;;;4.60;;
60582;SDS011;46415;47.536;19.066;2023-04-24T10:19:34;5.97;;;4.82;;
60582;SDS011;46415;47.536;19.066;2023-04-24T10:22:39;6.22;;;5.62;;
60582;SDS011;46415;47.536;19.066;2023-04-24T10:25:42;6.70;;;5.37;;
60582;SDS011;46415;47.536;19.066;2023-04-24T10:28:46;5.82;;;5.32;;
60582;SDS011;46415;47.536;19.066;2023-04-24T10:31:50;6.03;;;5.10;;
60582;SDS011;46415;47.536;19.066;2023-04-24T10:34:53;6.93;;;5.00;;
60582;SDS011;46415;47.536;19.066;2023-04-24T10:38:00;6.55;;;5.55;;
60582;SDS011;46415;47.536;19.066;2023-04-24T10:41:07;10.07;;;5.80;;
60582;SDS011;46415;47.536;19.066;2023-04-24T10:44:19;5.40;;;4.90;;
60582;SDS011;46415;47.536;19.066;2023-04-24T10:47:25;5.10;;;4.60;;
60582;SDS011;46415;47.536;19.066;2023-04-24T10:50:29;6.07;;;5.10;;
60582;SDS011;46415;47.536;19.066;2023-04-24T10:53:44;6.18;;;5.32;;
60582;SDS011;46415;47.536;19.066;2023-04-24T10:56:47;6.47;;;5.80;;
60582;SDS011;46415;47.536;19.066;2023-04-24T10:59:51;8.18;;;6.25;;
60582;SDS011;46415;47.536;19.066;2023-04-24T11:03:32;7.55;;;5.68;;
60582;SDS011;46415;47.536;19.066;2023-04-24T11:06:37;6.43;;;5.85;;
60582;SDS011;46415;47.536;19.066;2023-04-24T11:09:39;7.82;;;6.55;;
60582;SDS011;46415;47.536;19.066;2023-04-24T11:12:50;7.72;;;6.75;;
60582;SDS011;46415;47.536;19.066;2023-04-24T11:16:12;8.35;;;6.87;;
60582;SDS011;46415;47.536;19.066;2023-04-24T11:19:24;9.18;;;6.93;;
60582;SDS011;46415;47.536;19.066;2023-04-24T11:22:28;8.73;;;6.93;;
60582;SDS011;46415;47.536;19.066;2023-04-24T11:25:35;7.30;;;6.57;;
60582;SDS011;46415;47.536;19.066;2023-04-24T11:28:44;7.35;;;6.15;;
60582;SDS011;46415;47.536;19.066;2023-04-24T11:31:48;7.50;;;6.60;;
60582;SDS011;46415;47.536;19.066;2023-04-24T11:34:54;8.32;;;6.65;;
60582;SDS011;46415;47.536;19.066;2023-04-24T11:37:59;8.25;;;6.97;;
60582;SDS011;46415;47.536;19.066;2023-04-24T11:41:25;7.43;;;6.37;;
60582;SDS011;46415;47.536;19.066;2023-04-24T11:44:28;8.73;;;6.18;;
60582;SDS011;46415;47.536;19.066;2023-04-24T11:47:34;8.00;;;6.50;;
60582;SDS011;46415;47.536;19.066;2023-04-24T11:50:37;7.65;;;6.80;;
60582;SDS011;46415;47.536;19.066;2023-04-24T11:53:40;7.30;;;6.57;;
60582;SDS011;46415;47.536;19.066;2023-04-24T11:56:46;8.15;;;6.57;;
60582;SDS011;46415;47.536;19.066;2023-04-24T11:59:49;7.22;;;6.32;;
60582;SDS011;46415;47.536;19.066;2023-04-24T12:03:03;7.55;;;6.78;;
60582;SDS011;46415;47.536;19.066;2023-04-24T12:06:11;7.65;;;6.55;;
60582;SDS011;46415;47.536;19.066;2023-04-24T12:09:14;8.48;;;7.50;;
60582;SDS011;46415;47.536;19.066;2023-04-24T12:12:20;7.50;;;6.80;;
60582;SDS011;46415;47.536;19.066;2023-04-24T12:15:22;8.23;;;7.30;;
60582;SDS011;46415;47.536;19.066;2023-04-24T12:18:26;8.32;;;7.28;;
60582;SDS011;46415;47.536;19.066;2023-04-24T12:21:28;10.15;;;8.07;;
60582;SDS011;46415;47.536;19.066;2023-04-24T12:24:35;8.02;;;7.22;;
60582;SDS011;46415;47.536;19.066;2023-04-24T12:27:37;9.07;;;8.00;;
60582;SDS011;46415;47.536;19.066;2023-04-24T12:30:41;9.65;;;7.80;;
60582;SDS011;46415;47.536;19.066;2023-04-24T12:33:51;9.85;;;7.20;;
60582;SDS011;46415;47.536;19.066;2023-04-24T12:36:54;8.18;;;7.28;;
60582;SDS011;46415;47.536;19.066;2023-04-24T12:43:17;8.63;;;7.72;;
60582;SDS011;46415;47.536;19.066;2023-04-24T12:46:21;9.82;;;7.05;;
60582;SDS011;46415;47.536;19.066;2023-04-24T12:49:24;9.02;;;7.70;;
60582;SDS011;46415;47.536;19.066;2023-04-24T12:52:28;9.57;;;7.68;;
60582;SDS011;46415;47.536;19.066;2023-04-24T12:55:32;8.80;;;7.70;;
60582;SDS011;46415;47.536;19.066;2023-04-24T12:58:35;9.43;;;8.00;;
60582;SDS011;46415;47.536;19.066;2023-04-24T13:01:38;10.27;;;8.57;;
60582;SDS011;46415;47.536;19.066;2023-04-24T13:04:40;9.40;;;8.40;;
60582;SDS011;46415;47.536;19.066;2023-04-24T13:07:43;11.25;;;7.35;;
60582;SDS011;46415;47.536;19.066;2023-04-24T13:10:46;10.63;;;7.05;;
60582;SDS011;46415;47.536;19.066;2023-04-24T13:13:49;9.95;;;7.12;;
60582;SDS011;46415;47.536;19.066;2023-04-24T13:16:54;7.43;;;6.60;;
60582;SDS011;46415;47.536;19.066;2023-04-24T13:19:57;9.82;;;6.90;;
60582;SDS011;46415;47.536;19.066;2023-04-24T13:23:00;7.15;;;6.05;;
60582;SDS011;46415;47.536;19.066;2023-04-24T13:26:03;7.50;;;6.12;;
60582;SDS011;46415;47.536;19.066;2023-04-24T13:29:05;7.68;;;6.15;;
60582;SDS011;46415;47.536;19.066;2023-04-24T13:32:08;9.32;;;5.20;;
60582;SDS011;46415;47.536;19.066;2023-04-24T13:35:12;5.05;;;4.55;;
60582;SDS011;46415;47.536;19.066;2023-04-24T13:38:15;6.37;;;4.82;;
60582;SDS011;46415;47.536;19.066;2023-04-24T13:41:17;7.07;;;4.20;;
60582;SDS011;46415;47.536;19.066;2023-04-24T13:44:20;6.15;;;3.80;;
60582;SDS011;46415;47.536;19.066;2023-04-24T13:47:24;5.28;;;4.18;;
60582;SDS011;46415;47.536;19.066;2023-04-24T13:50:27;5.43;;;3.90;;
60582;SDS011;46415;47.536;19.066;2023-04-24T13:53:30;5.18;;;4.20;;
60582;SDS011;46415;47.536;19.066;2023-04-24T13:56:33;5.90;;;4.57;;
60582;SDS011;46415;47.536;19.066;2023-04-24T13:59:36;6.47;;;4.72;;
60582;SDS011;46415;47.536;19.066;2023-04-24T14:02:39;6.10;;;5.00;;
60582;SDS011;46415;47.536;19.066;2023-04-24T14:05:43;7.65;;;5.12;;
60582;SDS011;46415;47.536;19.066;2023-04-24T14:08:46;6.40;;;5.60;;
60582;SDS011;46415;47.536;19.066;2023-04-24T14:11:49;8.15;;;5.95;;
60582;SDS011;46415;47.536;19.066;2023-04-24T14:14:52;8.63;;;6.47;;
60582;SDS011;46415;47.536;19.066;2023-04-24T14:17:55;7.93;;;6.45;;
60582;SDS011;46415;47.536;19.066;2023-04-24T14:20:58;8.95;;;7.00;;
60582;SDS011;46415;47.536;19.066;2023-04-24T14:24:01;9.90;;;7.03;;
60582;SDS011;46415;47.536;19.066;2023-04-24T14:27:04;11.15;;;7.57;;
60582;SDS011;46415;47.536;19.066;2023-04-24T14:30:07;9.95;;;7.18;;
60582;SDS011;46415;47.536;19.066;2023-04-24T14:33:15;9.40;;;7.67;;
60582;SDS011;46415;47.536;19.066;2023-04-24T14:36:18;8.80;;;6.80;;
60582;SDS011;46415;47.536;19.066;2023-04-24T14:39:21;8.35;;;7.28;;
60582;SDS011;46415;47.536;19.066;2023-04-24T14:42:24;8.15;;;7.20;;
60582;SDS011;46415;47.536;19.066;2023-04-24T14:45:26;9.60;;;6.75;;
60582;SDS011;46415;47.536;19.066;2023-04-24T14:48:30;7.82;;;6.37;;
60582;SDS011;46415;47.536;19.066;2023-04-24T14:51:32;8.95;;;6.68;;
60582;SDS011;46415;47.536;19.066;2023-04-24T14:54:35;7.72;;;6.60;;
60582;SDS011;46415;47.536;19.066;2023-04-24T14:57:38;8.27;;;6.97;;
60582;SDS011;46415;47.536;19.066;2023-04-24T15:00:41;10.30;;;6.87;;
60582;SDS011;46415;47.536;19.066;2023-04-24T15:03:44;8.80;;;7.30;;
60582;SDS011;46415;47.536;19.066;2023-04-24T15:06:49;8.18;;;7.15;;
60582;SDS011;46415;47.536;19.066;2023-04-24T15:09:52;7.72;;;6.97;;
60582;SDS011;46415;47.536;19.066;2023-04-24T15:12:55;7.80;;;7.00;;
60582;SDS011;46415;47.536;19.066;2023-04-24T15:15:57;7.12;;;6.43;;
60582;SDS011;46415;47.536;19.066;2023-04-24T15:19:00;6.43;;;5.82;;
60582;SDS011;46415;47.536;19.066;2023-04-24T15:22:03;6.35;;;5.70;;
60582;SDS011;46415;47.536;19.066;2023-04-24T15:25:07;6.87;;;5.45;;
60582;SDS011;46415;47.536;19.066;2023-04-24T15:28:10;6.37;;;5.40;;
60582;SDS011;46415;47.536;19.066;2023-04-24T15:31:14;5.37;;;4.87;;
60582;SDS011;46415;47.536;19.066;2023-04-24T15:34:17;5.22;;;4.70;;
60582;SDS011;46415;47.536;19.066;2023-04-24T15:37:20;5.32;;;4.82;;
60582;SDS011;46415;47.536;19.066;2023-04-24T15:40:22;6.22;;;4.55;;
60582;SDS011;46415;47.536;19.066;2023-04-24T15:43:26;4.97;;;4.50;;
60582;SDS011;46415;47.536;19.066;2023-04-24T15:46:28;5.20;;;4.70;;
60582;SDS011;46415;47.536;19.066;2023-04-24T15:49:32;4.80;;;4.40;;
60582;SDS011;46415;47.536;19.066;2023-04-24T15:52:35;5.12;;;4.62;;
60582;SDS011;46415;47.536;19.066;2023-04-24T15:55:38;4.50;;;4.05;;
60582;SDS011;46415;47.536;19.066;2023-04-24T15:58:41;4.30;;;4.00;;
60582;SDS011;46415;47.536;19.066;2023-04-24T16:01:44;4.50;;;4.10;;
60582;SDS011;46415;47.536;19.066;2023-04-24T16:04:47;4.62;;;4.22;;
60582;SDS011;46415;47.536;19.066;2023-04-24T16:07:51;4.37;;;3.97;;
60582;SDS011;46415;47.536;19.066;2023-04-24T16:10:54;4.37;;;3.97;;
60582;SDS011;46415;47.536;19.066;2023-04-24T16:13:57;5.90;;;4.30;;
60582;SDS011;46415;47.536;19.066;2023-04-24T16:16:59;4.90;;;4.50;;
60582;SDS011;46415;47.536;19.066;2023-04-24T16:20:06;5.50;;;3.87;;
60582;SDS011;46415;47.536;19.066;2023-04-24T16:23:09;5.30;;;4.80;;
60582;SDS011;46415;47.536;19.066;2023-04-24T16:26:12;4.80;;;4.40;;
60582;SDS011;46415;47.536;19.066;2023-04-24T16:29:16;5.60;;;5.10;;
60582;SDS011;46415;47.536;19.066;2023-04-24T16:32:19;5.32;;;4.82;;
60582;SDS011;46415;47.536;19.066;2023-04-24T16:35:22;6.53;;;5.45;;
60582;SDS011;46415;47.536;19.066;2023-04-24T16:38:25;5.10;;;4.60;;
60582;SDS011;46415;47.536;19.066;2023-04-24T16:41:28;5.37;;;4.90;;
60582;SDS011;46415;47.536;19.066;2023-04-24T16:44:31;5.10;;;4.70;;
60582;SDS011;46415;47.536;19.066;2023-04-24T16:47:34;5.07;;;4.57;;
60582;SDS011;46415;47.536;19.066;2023-04-24T16:50:38;5.07;;;4.47;;
60582;SDS011;46415;47.536;19.066;2023-04-24T16:53:41;4.43;;;3.95;;
60582;SDS011;46415;47.536;19.066;2023-04-24T16:56:43;4.93;;;4.50;;
60582;SDS011;46415;47.536;19.066;2023-04-24T16:59:46;5.47;;;4.60;;
60582;SDS011;46415;47.536;19.066;2023-04-24T17:02:49;4.53;;;4.12;;
60582;SDS011;46415;47.536;19.066;2023-04-24T17:05:52;4.53;;;4.12;;
60582;SDS011;46415;47.536;19.066;2023-04-24T17:08:55;4.32;;;4.03;;
60582;SDS011;46415;47.536;19.066;2023-04-24T17:11:58;4.97;;;4.03;;
60582;SDS011;46415;47.536;19.066;2023-04-24T17:15:03;4.43;;;4.03;;
60582;SDS011;46415;47.536;19.066;2023-04-24T17:18:06;4.70;;;4.32;;
60582;SDS011;46415;47.536;19.066;2023-04-24T17:21:09;4.45;;;4.05;;
60582;SDS011;46415;47.536;19.066;2023-04-24T17:24:13;4.70;;;4.30;;
60582;SDS011;46415;47.536;19.066;2023-04-24T17:27:15;4.87;;;4.37;;
60582;SDS011;46415;47.536;19.066;2023-04-24T17:30:19;4.37;;;4.07;;
60582;SDS011;46415;47.536;19.066;2023-04-24T17:33:22;4.70;;;4.20;;
60582;SDS011;46415;47.536;19.066;2023-04-24T17:36:28;4.45;;;4.05;;
60582;SDS011;46415;47.536;19.066;2023-04-24T17:39:31;5.30;;;4.57;;
60582;SDS011;46415;47.536;19.066;2023-04-24T17:42:34;4.00;;;3.70;;
60582;SDS011;46415;47.536;19.066;2023-04-24T17:45:39;5.03;;;4.57;;
60582;SDS011;46415;47.536;19.066;2023-04-24T17:48:42;4.20;;;3.90;;
60582;SDS011;46415;47.536;19.066;2023-04-24T17:51:45;3.78;;;3.45;;
60582;SDS011;46415;47.536;19.066;2023-04-24T17:54:48;3.78;;;3.47;;
60582;SDS011;46415;47.536;19.066;2023-04-24T17:57:50;3.67;;;3.37;;
60582;SDS011;46415;47.536;19.066;2023-04-24T18:00:53;3.33;;;3.03;;
60582;SDS011;46415;47.536;19.066;2023-04-24T18:03:56;3.05;;;2.80;;
60582;SDS011;46415;47.536;19.066;2023-04-24T18:06:59;2.75;;;2.55;;